Time;durP1;ratioP1;P1;durP2;ratioP2;P2;SDS_P1;SDS_P2;PMS_P1;PMS_P2;Temp;Humidity;BMP_temperature;BMP_pressure;BME280_temperature;BME280_humidity;BME280_pressure;Samples;Min_cycle;Max_cycle;Signal;HPM_P1;HPM_P2
2022/04/07 00:00:16;;;;;;;8.85;6.57;;;;;21.30;98263.00;;;;2082754;28;20629;-46
2022/04/07 00:01:16;;;;;;;8.15;7.35;;;;;21.30;98265.00;;;;2085945;28;21837;-47
2022/04/07 00:02:17;;;;;;;8.00;7.20;;;;;21.30;98268.00;;;;2086593;28;20352;-47
2022/04/07 00:03:17;;;;;;;8.20;6.70;;;;;21.40;98272.00;;;;2087228;28;20228;-46
2022/04/07 00:04:18;;;;;;;8.53;6.40;;;;;21.40;98266.00;;;;2086931;28;20719;-46
2022/04/07 00:05:18;;;;;;;7.13;6.43;;;;;21.40;98261.00;;;;2086692;28;20219;-46
2022/04/07 00:06:18;;;;;;;7.13;6.30;;;;;21.30;98258.00;;;;2086827;28;20220;-46
2022/04/07 00:07:18;;;;;;;6.90;5.60;;;;;21.30;98264.00;;;;2086497;28;20232;-47
2022/04/07 00:08:19;;;;;;;7.23;5.47;;;;;21.40;98264.00;;;;2087163;28;20219;-47
2022/04/07 00:09:19;;;;;;;6.83;6.03;;;;;21.30;98261.00;;;;2085841;28;20216;-46
2022/04/07 00:10:21;;;;;;;6.67;5.47;;;;;21.30;98265.00;;;;2086913;28;20571;-47
2022/04/07 00:11:21;;;;;;;7.32;6.43;;;;;21.30;98267.00;;;;2086927;28;20216;-47
2022/04/07 00:12:22;;;;;;;8.30;5.53;;;;;21.30;98270.00;;;;2085380;28;20304;-47
2022/04/07 00:13:22;;;;;;;6.63;6.03;;;;;21.30;98265.00;;;;2087036;28;20458;-46
2022/04/07 00:14:22;;;;;;;6.07;5.47;;;;;21.30;98255.00;;;;2087140;28;20217;-47
2022/04/07 00:15:23;;;;;;;7.20;5.47;;;;;21.30;98252.00;;;;2086607;28;20225;-47
2022/04/07 00:16:23;;;;;;;6.87;5.53;;;;;21.30;98245.00;;;;2086787;28;20224;-46
2022/04/07 00:17:23;;;;;;;5.50;5.00;;;;;21.30;98239.00;;;;2086846;28;20558;-47
2022/04/07 00:18:24;;;;;;;6.60;5.37;;;;;21.30;98246.00;;;;2086977;28;20645;-47
2022/04/07 00:19:25;;;;;;;5.17;4.33;;;;;21.30;98245.00;;;;2086837;28;20770;-47
2022/04/07 00:20:26;;;;;;;6.07;5.13;;;;;21.30;98234.00;;;;2086931;28;20606;-47
2022/04/07 00:21:35;;;;;;;6.07;4.65;;;;;21.30;98241.00;;;;2077799;28;20460;-47
2022/04/07 00:22:36;;;;;;;5.72;5.07;;;;;21.30;98249.00;;;;2079351;28;20201;-47
2022/04/07 00:23:36;;;;;;;5.20;4.70;;;;;21.30;98248.00;;;;2086510;28;20267;-46
2022/04/07 00:24:36;;;;;;;5.60;4.47;;;;;21.30;98245.00;;;;2078119;28;20213;-46
2022/04/07 00:25:37;;;;;;;4.90;4.37;;;;;21.30;98245.00;;;;2077803;28;20214;-46
2022/04/07 00:26:37;;;;;;;5.20;4.70;;;;;21.30;98250.00;;;;2078708;28;20225;-47
2022/04/07 00:27:37;;;;;;;4.80;4.17;;;;;21.30;98242.00;;;;2078278;28;20197;-47
2022/04/07 00:28:38;;;;;;;5.27;4.77;;;;;21.20;98234.00;;;;2078464;28;20201;-47
2022/04/07 00:29:38;;;;;;;4.53;4.13;;;;;21.30;98235.00;;;;2078604;28;20288;-46
2022/04/07 00:30:39;;;;;;;4.20;3.80;;;;;21.30;98233.00;;;;2078685;28;20245;-47
2022/04/07 00:31:40;;;;;;;4.20;3.80;;;;;21.30;98227.00;;;;2085483;28;20255;-47
2022/04/07 00:32:41;;;;;;;5.00;4.13;;;;;21.30;98228.00;;;;2085623;28;20213;-47
2022/04/07 00:33:42;;;;;;;4.45;3.95;;;;;21.20;98232.00;;;;2086597;28;20219;-46
2022/04/07 00:34:46;;;;;;;4.10;3.53;;;;;21.30;98231.00;;;;2086814;28;20239;-47
2022/04/07 00:35:46;;;;;;;4.22;3.80;;;;;21.30;98229.00;;;;2085290;28;20697;-47
2022/04/07 00:36:46;;;;;;;4.67;3.70;;;;;21.20;98222.00;;;;2086164;28;20223;-47
2022/04/07 00:37:47;;;;;;;4.30;3.90;;;;;21.20;98223.00;;;;2086465;28;20216;-47
2022/04/07 00:38:47;;;;;;;4.40;3.30;;;;;21.20;98223.00;;;;2086796;28;20248;-46
2022/04/07 00:39:48;;;;;;;4.27;3.67;;;;;21.30;98219.00;;;;2086725;28;20879;-47
2022/04/07 00:40:48;;;;;;;4.60;3.47;;;;;21.20;98219.00;;;;2086819;28;20204;-47
2022/04/07 00:41:49;;;;;;;3.90;3.40;;;;;21.20;98202.00;;;;2086704;28;20254;-47
2022/04/07 00:42:50;;;;;;;4.23;3.73;;;;;21.20;98203.00;;;;2086816;28;20266;-46
2022/04/07 00:43:51;;;;;;;4.55;3.47;;;;;21.20;98210.00;;;;2086501;28;20746;-47
2022/04/07 00:44:51;;;;;;;4.87;3.43;;;;;21.30;98197.00;;;;2086704;28;20209;-47
2022/04/07 00:45:52;;;;;;;3.87;3.47;;;;;21.20;98210.00;;;;2086148;28;20776;-47
2022/04/07 00:46:52;;;;;;;4.10;3.70;;;;;21.20;98198.00;;;;2086515;28;20630;-46
2022/04/07 00:47:53;;;;;;;4.20;3.30;;;;;21.20;98205.00;;;;2085678;28;20682;-47
2022/04/07 00:48:53;;;;;;;3.20;2.90;;;;;21.20;98197.00;;;;2084176;28;20221;-47
2022/04/07 00:49:54;;;;;;;3.43;3.13;;;;;21.20;98196.00;;;;2086228;28;20216;-47
2022/04/07 00:50:54;;;;;;;3.33;3.03;;;;;21.20;98190.00;;;;2086916;28;21257;-47
2022/04/07 00:51:55;;;;;;;3.83;3.00;;;;;21.20;98193.00;;;;2086839;28;20569;-46
2022/04/07 00:52:56;;;;;;;3.23;2.93;;;;;21.20;98193.00;;;;2086071;28;20447;-46
2022/04/07 00:53:57;;;;;;;4.03;3.05;;;;;21.20;98191.00;;;;2086031;28;20209;-47
2022/04/07 00:54:57;;;;;;;3.13;2.80;;;;;21.20;98178.00;;;;2086607;28;20217;-47
2022/04/07 00:56:01;;;;;;;4.40;3.20;;;;;21.20;98185.00;;;;2086215;28;20221;-47
2022/04/07 00:57:01;;;;;;;3.55;3.17;;;;;21.20;98174.00;;;;2077791;28;20239;-47
2022/04/07 00:58:02;;;;;;;2.93;2.33;;;;;21.20;98189.00;;;;2062105;28;20738;-47
2022/04/07 00:59:04;;;;;;;3.37;3.07;;;;;21.20;98184.00;;;;2061637;28;20238;-46
2022/04/07 01:00:05;;;;;;;4.00;2.97;;;;;21.20;98174.00;;;;2077580;28;20239;-47
2022/04/07 01:01:06;;;;;;;3.70;3.00;;;;;21.20;98182.00;;;;2074939;28;20223;-46
2022/04/07 01:02:09;;;;;;;5.93;2.63;;;;;21.20;98181.00;;;;2077510;28;21026;-47
2022/04/07 01:03:09;;;;;;;2.88;2.58;;;;;21.20;98178.00;;;;2081546;28;20216;-47
2022/04/07 01:04:09;;;;;;;3.00;2.57;;;;;21.20;98165.00;;;;2086451;28;20227;-47
2022/04/07 01:05:10;;;;;;;3.80;3.10;;;;;21.20;98164.00;;;;2086671;28;20295;-47
2022/04/07 01:06:10;;;;;;;3.07;2.77;;;;;21.20;98176.00;;;;2086264;28;20201;-46
2022/04/07 01:07:11;;;;;;;3.13;2.47;;;;;21.20;98164.00;;;;2086613;28;20201;-47
2022/04/07 01:08:11;;;;;;;4.47;2.40;;;;;21.20;98162.00;;;;2084549;28;20237;-47
2022/04/07 01:09:11;;;;;;;2.50;2.30;;;;;21.20;98155.00;;;;2085928;28;20220;-47
2022/04/07 01:10:12;;;;;;;3.03;2.50;;;;;21.10;98156.00;;;;2086883;28;20220;-46
2022/04/07 01:11:12;;;;;;;2.90;2.70;;;;;21.20;98161.00;;;;2086492;28;20204;-46
2022/04/07 01:12:13;;;;;;;3.63;3.07;;;;;21.10;98156.00;;;;2085957;28;20244;-49
2022/04/07 01:13:14;;;;;;;2.77;2.30;;;;;21.10;98155.00;;;;2081003;28;20205;-48
2022/04/07 01:14:15;;;;;;;2.92;2.65;;;;;21.10;98156.00;;;;2078549;28;20210;-47
2022/04/07 01:15:15;;;;;;;3.30;2.50;;;;;21.20;98151.00;;;;2078591;28;20245;-47
2022/04/07 01:16:16;;;;;;;2.33;2.13;;;;;21.10;98156.00;;;;2078205;28;20240;-47
2022/04/07 01:17:19;;;;;;;2.92;2.38;;;;;21.10;98160.00;;;;2077817;28;20209;-47
2022/04/07 01:18:20;;;;;;;2.90;2.50;;;;;21.10;98155.00;;;;2077312;28;20666;-47
2022/04/07 01:19:20;;;;;;;2.97;2.20;;;;;21.10;98153.00;;;;2078390;28;20216;-47
2022/04/07 01:20:20;;;;;;;2.70;2.10;;;;;21.10;98169.00;;;;2078477;28;20304;-46
2022/04/07 01:21:21;;;;;;;3.30;2.27;;;;;21.10;98153.00;;;;2078680;28;20201;-46
2022/04/07 01:22:22;;;;;;;2.17;1.97;;;;;21.10;98148.00;;;;2068187;28;20213;-46
2022/04/07 01:23:22;;;;;;;2.53;2.00;;;;;21.10;98150.00;;;;2069776;28;20996;-46
2022/04/07 01:24:30;;;;;;;2.80;2.00;;;;;21.10;98145.00;;;;2077536;28;20272;-47
2022/04/07 01:25:30;;;;;;;3.28;2.53;;;;;21.10;98151.00;;;;2072179;28;20694;-47
2022/04/07 01:26:37;;;;;;;2.43;2.23;;;;;21.10;98144.00;;;;2069863;28;20202;-47
2022/04/07 01:27:37;;;;;;;2.28;1.73;;;;;21.20;98139.00;;;;2067586;28;20234;-48
2022/04/07 01:28:38;;;;;;;3.03;2.37;;;;;21.10;98140.00;;;;2078087;28;20217;-47
2022/04/07 01:29:38;;;;;;;3.20;1.90;;;;;21.10;98132.00;;;;2078417;28;20316;-47
2022/04/07 01:30:38;;;;;;;3.77;1.90;;;;;21.10;98129.00;;;;2077881;28;20225;-46
2022/04/07 01:31:39;;;;;;;2.73;2.40;;;;;21.10;98117.00;;;;2078335;28;20209;-46
2022/04/07 01:32:44;;;;;;;2.20;1.77;;;;;21.10;98119.00;;;;2078291;28;20212;-47
2022/04/07 01:33:44;;;;;;;2.72;2.20;;;;;21.10;98109.00;;;;2085663;28;20275;-45
2022/04/07 01:34:44;;;;;;;2.73;2.30;;;;;21.10;98127.00;;;;2084354;28;20220;-47
2022/04/07 01:35:45;;;;;;;3.03;2.00;;;;;21.10;98128.00;;;;2084715;28;20271;-46
2022/04/07 01:36:46;;;;;;;3.07;2.60;;;;;21.10;98129.00;;;;2077766;28;20214;-46
2022/04/07 01:37:46;;;;;;;2.78;2.20;;;;;21.00;98128.00;;;;2085688;28;20216;-46
2022/04/07 01:38:47;;;;;;;2.87;2.20;;;;;21.10;98119.00;;;;2084635;28;20716;-46
2022/04/07 01:39:47;;;;;;;2.33;2.13;;;;;21.10;98110.00;;;;2084793;28;20717;-48
2022/04/07 01:40:47;;;;;;;4.53;2.30;;;;;21.10;98106.00;;;;2075296;28;20240;-47
2022/04/07 01:41:48;;;;;;;4.93;2.03;;;;;21.10;98101.00;;;;2086023;28;20201;-47
2022/04/07 01:42:49;;;;;;;2.40;2.20;;;;;21.10;98109.00;;;;2084819;28;20335;-47
2022/04/07 01:43:49;;;;;;;3.72;2.00;;;;;21.10;98095.00;;;;2077477;28;20659;-47
2022/04/07 01:44:50;;;;;;;2.47;1.93;;;;;21.10;98105.00;;;;2085693;28;20351;-47
2022/04/07 01:45:50;;;;;;;2.73;1.70;;;;;21.10;98107.00;;;;2085349;28;20253;-47
2022/04/07 01:46:51;;;;;;;2.23;1.87;;;;;21.10;98108.00;;;;2085756;28;20228;-47
2022/04/07 01:47:51;;;;;;;2.80;2.15;;;;;21.10;98096.00;;;;2078146;28;20224;-48
2022/04/07 01:48:52;;;;;;;3.00;2.00;;;;;21.10;98096.00;;;;2077244;28;20221;-48
2022/04/07 01:49:56;;;;;;;2.30;1.80;;;;;21.10;98106.00;;;;2077754;28;20341;-46
2022/04/07 01:50:56;;;;;;;2.38;2.00;;;;;21.10;98108.00;;;;2078218;28;20209;-46
2022/04/07 01:51:59;;;;;;;2.70;2.33;;;;;21.10;98107.00;;;;2078788;28;20234;-47
2022/04/07 01:52:59;;;;;;;1.88;1.70;;;;;21.10;98099.00;;;;2078106;28;20532;-47
2022/04/07 01:53:59;;;;;;;3.20;2.17;;;;;21.10;98084.00;;;;2077528;28;20217;-47
2022/04/07 01:55:00;;;;;;;3.30;1.90;;;;;21.10;98082.00;;;;2069216;28;20220;-47
2022/04/07 01:56:00;;;;;;;4.77;2.10;;;;;21.10;98096.00;;;;2069457;28;20210;-47
2022/04/07 01:57:00;;;;;;;2.70;1.90;;;;;21.10;98085.00;;;;2066171;28;20714;-46
2022/04/07 01:58:01;;;;;;;2.70;1.60;;;;;21.10;98090.00;;;;2063085;28;20703;-47
2022/04/07 01:59:01;;;;;;;3.30;1.73;;;;;21.10;98096.00;;;;2071163;28;20211;-47
2022/04/07 02:00:03;;;;;;;1.97;1.50;;;;;21.10;98099.00;;;;2071298;28;20261;-47
2022/04/07 02:01:03;;;;;;;2.70;1.95;;;;;21.10;98088.00;;;;2079595;28;20716;-47
2022/04/07 02:02:04;;;;;;;3.00;1.70;;;;;21.00;98086.00;;;;2073430;28;20218;-47
2022/04/07 02:03:05;;;;;;;1.90;1.40;;;;;21.10;98076.00;;;;2071982;28;20214;-47
2022/04/07 02:04:05;;;;;;;4.90;2.13;;;;;21.10;98084.00;;;;2071865;28;20221;-47
2022/04/07 02:05:11;;;;;;;2.93;1.90;;;;;21.10;98080.00;;;;2071930;28;20233;-47
2022/04/07 02:06:12;;;;;;;2.65;1.63;;;;;21.00;98102.00;;;;2071233;28;20625;-47
2022/04/07 02:07:12;;;;;;;1.85;1.65;;;;;21.00;98100.00;;;;2071723;28;20229;-47
2022/04/07 02:08:12;;;;;;;2.70;1.67;;;;;21.00;98076.00;;;;2070954;28;20217;-47
2022/04/07 02:09:13;;;;;;;2.83;1.77;;;;;21.00;98079.00;;;;2071042;28;20225;-46
2022/04/07 02:10:14;;;;;;;2.60;1.67;;;;;21.00;98084.00;;;;2071722;28;20698;-47
2022/04/07 02:11:14;;;;;;;2.20;1.70;;;;;21.00;98079.00;;;;2071531;28;20218;-46
2022/04/07 02:12:14;;;;;;;2.23;1.50;;;;;21.00;98069.00;;;;2071824;28;20225;-47
2022/04/07 02:13:15;;;;;;;2.73;1.73;;;;;21.00;98078.00;;;;2072039;28;20713;-47
2022/04/07 02:14:15;;;;;;;2.20;1.37;;;;;21.00;98066.00;;;;2071852;28;20571;-46
2022/04/07 02:15:15;;;;;;;2.50;1.50;;;;;21.00;98085.00;;;;2071652;28;20573;-46
2022/04/07 02:16:16;;;;;;;2.17;1.40;;;;;21.00;98072.00;;;;2071397;28;20617;-47
2022/04/07 02:17:22;;;;;;;2.10;1.60;;;;;21.00;98060.00;;;;2071656;28;20600;-47
2022/04/07 02:18:23;;;;;;;2.38;1.58;;;;;21.00;98073.00;;;;2078999;28;20845;-49
2022/04/07 02:19:23;;;;;;;2.30;1.57;;;;;21.00;98065.00;;;;2079127;28;20213;-48
2022/04/07 02:20:23;;;;;;;2.47;1.70;;;;;21.00;98076.00;;;;2079984;28;20217;-48
2022/04/07 02:21:24;;;;;;;2.27;1.43;;;;;21.00;98079.00;;;;2078135;28;20300;-47
2022/04/07 02:22:24;;;;;;;2.67;1.80;;;;;21.00;98073.00;;;;2079961;28;20775;-47
2022/04/07 02:23:26;;;;;;;2.40;1.37;;;;;21.00;98058.00;;;;2082901;28;20204;-47
2022/04/07 02:24:27;;;;;;;1.55;1.20;;;;;21.00;98074.00;;;;2086463;28;20221;-47
2022/04/07 02:25:28;;;;;;;2.50;1.60;;;;;21.00;98062.00;;;;2087445;28;20204;-47
2022/04/07 02:26:30;;;;;;;2.55;1.65;;;;;21.00;98058.00;;;;2087663;28;20263;-47
2022/04/07 02:27:35;;;;;;;3.10;1.50;;;;;21.00;98074.00;;;;2087284;28;20307;-47
2022/04/07 02:28:35;;;;;;;1.80;1.48;;;;;21.00;98070.00;;;;2087485;28;20584;-47
2022/04/07 02:29:36;;;;;;;1.63;1.30;;;;;21.00;98061.00;;;;2087844;28;20216;-48
2022/04/07 02:30:36;;;;;;;3.13;1.43;;;;;21.00;98068.00;;;;2087678;28;20247;-47
2022/04/07 02:31:36;;;;;;;2.63;1.50;;;;;21.00;98063.00;;;;2088210;28;20784;-47
2022/04/07 02:32:37;;;;;;;3.17;1.50;;;;;21.00;98059.00;;;;2084429;28;20202;-47
2022/04/07 02:33:37;;;;;;;2.03;1.37;;;;;21.00;98056.00;;;;2087453;28;20245;-47
2022/04/07 02:34:39;;;;;;;1.50;1.07;;;;;21.00;98068.00;;;;2085442;28;20240;-47
2022/04/07 02:35:39;;;;;;;1.65;1.40;;;;;21.00;98053.00;;;;2086964;28;20562;-47
2022/04/07 02:36:39;;;;;;;3.33;1.50;;;;;21.00;98047.00;;;;2088271;28;20247;-47
2022/04/07 02:37:40;;;;;;;2.30;1.50;;;;;21.00;98041.00;;;;2088147;28;20574;-47
2022/04/07 02:38:40;;;;;;;1.90;1.37;;;;;21.00;98039.00;;;;2088032;28;20774;-47
2022/04/07 02:39:40;;;;;;;3.23;1.33;;;;;21.00;98039.00;;;;2088134;28;20237;-48
2022/04/07 02:40:41;;;;;;;2.50;1.47;;;;;21.00;98043.00;;;;2088122;28;20223;-46
2022/04/07 02:41:41;;;;;;;2.00;1.60;;;;;20.90;98038.00;;;;2088248;28;20656;-47
2022/04/07 02:42:41;;;;;;;1.93;1.10;;;;;20.90;98042.00;;;;2088145;28;20221;-47
2022/04/07 02:43:42;;;;;;;2.60;1.60;;;;;21.00;98035.00;;;;2087280;28;20307;-47
2022/04/07 02:44:42;;;;;;;2.20;1.50;;;;;21.00;98036.00;;;;2087204;28;20244;-47
2022/04/07 02:45:42;;;;;;;2.33;1.30;;;;;21.00;98029.00;;;;2087599;28;20909;-48
2022/04/07 02:46:43;;;;;;;2.23;1.50;;;;;21.00;98026.00;;;;2087996;28;20281;-47
2022/04/07 02:47:43;;;;;;;2.27;1.20;;;;;21.00;98024.00;;;;2077727;28;20675;-47
2022/04/07 02:48:44;;;;;;;1.93;1.30;;;;;21.00;98017.00;;;;2086803;28;20232;-48
2022/04/07 02:49:45;;;;;;;3.57;1.23;;;;;21.00;98026.00;;;;2087281;28;20217;-47
2022/04/07 02:50:45;;;;;;;1.30;1.00;;;;;21.00;98021.00;;;;2087493;28;20247;-46
2022/04/07 02:51:46;;;;;;;2.40;1.27;;;;;21.00;98015.00;;;;2087277;28;20216;-47
2022/04/07 02:52:46;;;;;;;4.13;1.70;;;;;21.00;98021.00;;;;2088052;28;20612;-47
2022/04/07 02:53:46;;;;;;;2.13;1.50;;;;;21.00;98004.00;;;;2087869;28;20691;-47
2022/04/07 02:54:47;;;;;;;2.47;1.20;;;;;21.00;98003.00;;;;2087523;28;20209;-48
2022/04/07 02:55:47;;;;;;;2.77;1.23;;;;;20.90;98000.00;;;;2087199;28;20279;-47
2022/04/07 02:56:47;;;;;;;2.20;1.10;;;;;21.00;97996.00;;;;2088171;28;20217;-47
2022/04/07 02:57:48;;;;;;;1.80;1.30;;;;;21.00;97994.00;;;;2087862;28;20224;-46
2022/04/07 02:58:48;;;;;;;2.37;1.30;;;;;20.90;97998.00;;;;2087934;28;20217;-47
2022/04/07 02:59:48;;;;;;;2.00;1.07;;;;;20.90;97991.00;;;;2087738;28;20292;-47
2022/04/07 03:00:49;;;;;;;2.20;1.30;;;;;20.90;97986.00;;;;2087848;28;20217;-48
2022/04/07 03:01:51;;;;;;;2.07;1.27;;;;;20.90;97986.00;;;;2087656;28;20262;-47
2022/04/07 03:02:52;;;;;;;2.35;1.25;;;;;20.90;97980.00;;;;2087863;28;20700;-46
2022/04/07 03:03:55;;;;;;;1.60;1.10;;;;;20.90;97979.00;;;;2084824;28;20314;-46
2022/04/07 03:04:56;;;;;;;1.50;1.00;;;;;20.90;97970.00;;;;2087462;28;20677;-50
2022/04/07 03:05:56;;;;;;;1.40;1.03;;;;;20.90;97968.00;;;;2086259;28;20308;-48
2022/04/07 03:06:56;;;;;;;2.40;1.30;;;;;20.90;97968.00;;;;2079703;28;20217;-47
2022/04/07 03:07:57;;;;;;;2.13;1.10;;;;;20.90;97969.00;;;;2079631;28;20213;-47
2022/04/07 03:08:57;;;;;;;1.43;1.00;;;;;21.00;97968.00;;;;2079623;28;20220;-47
2022/04/07 03:09:58;;;;;;;2.13;1.30;;;;;20.90;97958.00;;;;2079897;28;20213;-47
2022/04/07 03:10:58;;;;;;;1.60;1.10;;;;;20.90;97960.00;;;;2079641;28;20223;-47
2022/04/07 03:11:58;;;;;;;1.57;1.10;;;;;20.90;97959.00;;;;2079842;28;20217;-48
2022/04/07 03:12:59;;;;;;;1.33;0.93;;;;;20.90;97961.00;;;;2077597;28;20217;-46
2022/04/07 03:13:59;;;;;;;1.53;1.00;;;;;20.90;97953.00;;;;2079722;28;20236;-48
2022/04/07 03:14:59;;;;;;;1.90;1.00;;;;;20.90;97970.00;;;;2079377;28;20220;-47
2022/04/07 03:16:00;;;;;;;1.23;0.80;;;;;20.90;97962.00;;;;2078872;28;20296;-47
2022/04/07 03:17:00;;;;;;;2.03;1.30;;;;;20.90;97961.00;;;;2079360;28;20706;-47
2022/04/07 03:18:00;;;;;;;2.20;1.10;;;;;20.90;97952.00;;;;2079241;28;20278;-47
2022/04/07 03:19:01;;;;;;;1.60;1.30;;;;;20.90;97943.00;;;;2079463;28;20234;-46
2022/04/07 03:20:01;;;;;;;1.90;1.27;;;;;20.90;97948.00;;;;2079296;28;20224;-47
2022/04/07 03:21:02;;;;;;;1.63;1.17;;;;;20.90;97938.00;;;;2079284;28;20503;-47
2022/04/07 03:22:02;;;;;;;1.60;1.00;;;;;20.90;97941.00;;;;2079185;28;20243;-47
2022/04/07 03:23:03;;;;;;;1.27;0.83;;;;;20.90;97948.00;;;;2079317;28;20248;-48
2022/04/07 03:24:03;;;;;;;1.50;1.10;;;;;20.90;97934.00;;;;2079374;28;20217;-48
2022/04/07 03:25:04;;;;;;;1.17;1.07;;;;;20.90;97938.00;;;;2078426;28;20221;-47
2022/04/07 03:26:04;;;;;;;1.83;1.30;;;;;20.90;97945.00;;;;2078078;28;20276;-47
2022/04/07 03:27:06;;;;;;;1.70;0.93;;;;;20.90;97932.00;;;;2078743;28;20260;-48
2022/04/07 03:28:06;;;;;;;1.70;1.13;;;;;20.90;97927.00;;;;2079452;28;20217;-47
2022/04/07 03:29:06;;;;;;;1.40;1.00;;;;;20.90;97927.00;;;;2087473;28;20232;-47
2022/04/07 03:30:07;;;;;;;1.20;1.00;;;;;20.90;97936.00;;;;2083098;28;20212;-47
2022/04/07 03:31:08;;;;;;;1.20;1.00;;;;;20.90;97944.00;;;;2082307;28;20213;-46
2022/04/07 03:32:08;;;;;;;1.37;1.07;;;;;20.90;97938.00;;;;2087863;28;20462;-48
2022/04/07 03:33:09;;;;;;;2.27;1.27;;;;;20.90;97923.00;;;;2079039;28;20213;-46
2022/04/07 03:34:09;;;;;;;1.27;0.97;;;;;20.90;97917.00;;;;2079224;28;20205;-46
2022/04/07 03:35:09;;;;;;;3.70;1.00;;;;;20.90;97923.00;;;;2079240;28;20578;-45
2022/04/07 03:36:10;;;;;;;1.90;0.90;;;;;20.90;97908.00;;;;2078916;28;20296;-47
2022/04/07 03:37:11;;;;;;;1.40;0.93;;;;;20.90;97910.00;;;;2079329;28;20210;-48
2022/04/07 03:38:11;;;;;;;2.15;0.90;;;;;20.90;97919.00;;;;2079349;28;20262;-46
2022/04/07 03:39:13;;;;;;;1.40;0.97;;;;;20.90;97915.00;;;;2079570;28;20214;-46
2022/04/07 03:40:14;;;;;;;1.27;0.90;;;;;20.90;97921.00;;;;2079349;28;20263;-47
2022/04/07 03:41:15;;;;;;;2.00;0.90;;;;;20.90;97917.00;;;;2079335;28;20221;-48
2022/04/07 03:42:15;;;;;;;1.90;1.05;;;;;20.90;97898.00;;;;2079218;28;20575;-46
2022/04/07 03:43:16;;;;;;;1.10;0.90;;;;;20.90;97909.00;;;;2078702;28;20245;-46
2022/04/07 03:44:16;;;;;;;2.43;1.20;;;;;20.80;97909.00;;;;2079096;28;20213;-45
2022/04/07 03:45:16;;;;;;;2.10;1.20;;;;;20.80;97913.00;;;;2079388;28;20225;-47
2022/04/07 03:46:21;;;;;;;1.70;1.07;;;;;20.90;97910.00;;;;2078866;28;20206;-45
2022/04/07 03:47:21;;;;;;;1.83;1.20;;;;;20.90;97932.00;;;;2079176;28;20462;-46
2022/04/07 03:48:22;;;;;;;1.53;0.83;;;;;20.90;97897.00;;;;2079401;28;20804;-45
2022/04/07 03:49:22;;;;;;;1.40;1.20;;;;;20.80;97898.00;;;;2079291;28;20228;-46
2022/04/07 03:50:22;;;;;;;2.73;1.00;;;;;20.90;97918.00;;;;2079497;28;20300;-45
2022/04/07 03:51:23;;;;;;;0.90;0.70;;;;;20.80;97906.00;;;;2079363;28;20217;-47
2022/04/07 03:52:23;;;;;;;1.70;1.00;;;;;20.90;97901.00;;;;2079348;28;20225;-46
2022/04/07 03:53:24;;;;;;;1.33;0.90;;;;;20.80;97901.00;;;;2078323;28;20214;-46
2022/04/07 03:54:24;;;;;;;1.60;0.97;;;;;20.80;97902.00;;;;2079317;28;20209;-47
2022/04/07 03:55:25;;;;;;;1.20;0.90;;;;;20.80;97904.00;;;;2078529;28;20213;-45
2022/04/07 03:56:25;;;;;;;1.20;0.93;;;;;20.90;97911.00;;;;2078897;28;20678;-47
2022/04/07 03:57:25;;;;;;;1.10;0.70;;;;;20.90;97900.00;;;;2079147;28;20225;-47
2022/04/07 03:58:29;;;;;;;2.20;0.90;;;;;20.80;97899.00;;;;2079396;28;21086;-46
2022/04/07 03:59:33;;;;;;;1.55;0.80;;;;;20.80;97909.00;;;;2079288;28;20217;-47
2022/04/07 04:00:34;;;;;;;1.65;0.90;;;;;20.80;97905.00;;;;2079439;28;20722;-48
2022/04/07 04:01:35;;;;;;;1.50;0.90;;;;;20.80;97891.00;;;;2078470;28;20205;-49
2022/04/07 04:02:35;;;;;;;1.40;0.70;;;;;20.80;97895.00;;;;2074926;28;20230;-47
2022/04/07 04:03:35;;;;;;;2.63;0.93;;;;;20.80;97888.00;;;;2071114;28;20702;-47
2022/04/07 04:04:39;;;;;;;1.50;0.90;;;;;20.80;97883.00;;;;2078401;28;20690;-47
2022/04/07 04:05:39;;;;;;;0.88;0.70;;;;;20.80;97877.00;;;;2078886;28;20224;-47
2022/04/07 04:06:40;;;;;;;1.13;0.77;;;;;20.80;97883.00;;;;2079459;28;20592;-48
2022/04/07 04:07:41;;;;;;;1.90;0.80;;;;;20.80;97879.00;;;;2078991;28;20214;-47
2022/04/07 04:08:41;;;;;;;2.27;1.00;;;;;20.80;97874.00;;;;2079113;28;20796;-47
2022/04/07 04:09:42;;;;;;;2.00;0.90;;;;;20.80;97865.00;;;;2078510;28;20222;-49
2022/04/07 04:10:42;;;;;;;1.30;0.90;;;;;20.80;97871.00;;;;2071024;28;20217;-47
2022/04/07 04:11:43;;;;;;;2.67;1.03;;;;;20.80;97867.00;;;;2071198;28;20529;-47
2022/04/07 04:12:43;;;;;;;1.30;0.50;;;;;20.80;97852.00;;;;2071109;28;20222;-48
2022/04/07 04:13:45;;;;;;;1.03;0.70;;;;;20.80;97855.00;;;;2075799;28;20218;-46
2022/04/07 04:14:45;;;;;;;2.35;0.80;;;;;20.80;97853.00;;;;2079209;28;20236;-46
2022/04/07 04:15:46;;;;;;;1.53;1.00;;;;;20.80;97858.00;;;;2083153;28;20220;-46
2022/04/07 04:16:46;;;;;;;1.67;0.90;;;;;20.80;97846.00;;;;2081286;28;20241;-47
2022/04/07 04:17:47;;;;;;;2.23;0.90;;;;;20.80;97850.00;;;;2078765;28;20237;-46
2022/04/07 04:18:47;;;;;;;1.93;1.00;;;;;20.80;97838.00;;;;2079058;28;20213;-47
2022/04/07 04:19:47;;;;;;;0.87;0.60;;;;;20.80;97844.00;;;;2078707;28;20217;-47
2022/04/07 04:20:48;;;;;;;2.30;0.93;;;;;20.80;97839.00;;;;2079054;28;20316;-46
2022/04/07 04:21:49;;;;;;;1.97;0.90;;;;;20.80;97843.00;;;;2078970;28;20221;-46
2022/04/07 04:22:50;;;;;;;1.33;0.80;;;;;20.80;97844.00;;;;2073713;28;20222;-46
2022/04/07 04:23:50;;;;;;;1.35;0.77;;;;;20.80;97840.00;;;;2071079;28;20218;-47
2022/04/07 04:24:51;;;;;;;1.57;0.73;;;;;20.80;97843.00;;;;2074399;28;20213;-46
2022/04/07 04:25:51;;;;;;;1.77;1.00;;;;;20.80;97838.00;;;;2077765;28;20263;-46
2022/04/07 04:26:51;;;;;;;1.57;0.87;;;;;20.80;97825.00;;;;2078181;28;20297;-47
2022/04/07 04:27:52;;;;;;;1.50;0.80;;;;;20.80;97831.00;;;;2078975;28;20221;-46
2022/04/07 04:28:52;;;;;;;1.10;0.73;;;;;20.80;97833.00;;;;2078044;28;20232;-46
2022/04/07 04:29:52;;;;;;;3.40;0.70;;;;;20.70;97837.00;;;;2078896;28;20305;-47
2022/04/07 04:30:53;;;;;;;1.77;0.80;;;;;20.70;97825.00;;;;2078127;28;20263;-47
2022/04/07 04:31:53;;;;;;;1.80;0.90;;;;;20.80;97833.00;;;;2072920;28;20762;-46
2022/04/07 04:32:53;;;;;;;1.17;0.63;;;;;20.80;97823.00;;;;2071530;28;20815;-47
2022/04/07 04:33:54;;;;;;;1.07;0.80;;;;;20.80;97827.00;;;;2077550;28;20761;-47
2022/04/07 04:34:54;;;;;;;1.33;0.73;;;;;20.70;97817.00;;;;2071555;28;20587;-47
2022/04/07 04:35:55;;;;;;;1.33;0.73;;;;;20.80;97811.00;;;;2071096;28;20454;-47
2022/04/07 04:36:55;;;;;;;1.47;0.70;;;;;20.80;97800.00;;;;2074490;28;20222;-48
2022/04/07 04:37:55;;;;;;;1.70;0.80;;;;;20.80;97798.00;;;;2079344;28;20236;-46
2022/04/07 04:38:56;;;;;;;1.50;0.73;;;;;20.80;97805.00;;;;2079388;28;20213;-47
2022/04/07 04:39:56;;;;;;;1.23;0.80;;;;;20.80;97791.00;;;;2079361;28;20263;-47
2022/04/07 04:40:56;;;;;;;1.67;0.80;;;;;20.80;97806.00;;;;2078823;28;20244;-48
2022/04/07 04:41:57;;;;;;;1.30;0.60;;;;;20.80;97792.00;;;;2079348;28;20221;-47
2022/04/07 04:42:58;;;;;;;1.50;0.70;;;;;20.70;97811.00;;;;2078087;28;20225;-47
2022/04/07 04:44:00;;;;;;;1.77;0.70;;;;;20.70;97814.00;;;;2071306;28;20221;-47
2022/04/07 04:45:00;;;;;;;1.63;0.82;;;;;20.70;97804.00;;;;2071228;28;20221;-47
2022/04/07 04:46:01;;;;;;;1.30;0.77;;;;;20.80;97801.00;;;;2070731;28;20228;-47
2022/04/07 04:47:02;;;;;;;1.25;0.70;;;;;20.70;97792.00;;;;2071221;28;20214;-46
2022/04/07 04:48:02;;;;;;;1.20;0.70;;;;;20.70;97788.00;;;;2066686;28;20252;-47
2022/04/07 04:49:03;;;;;;;1.40;0.73;;;;;20.70;97796.00;;;;2070764;28;20253;-47
2022/04/07 04:50:05;;;;;;;2.90;1.00;;;;;20.70;97783.00;;;;2071044;28;20305;-47
2022/04/07 04:51:05;;;;;;;1.90;0.90;;;;;20.70;97797.00;;;;2074505;28;20213;-47
2022/04/07 04:52:06;;;;;;;0.87;0.50;;;;;20.70;97779.00;;;;2078347;28;20241;-47
2022/04/07 04:53:06;;;;;;;1.73;0.70;;;;;20.70;97780.00;;;;2079268;28;20216;-45
2022/04/07 04:54:06;;;;;;;1.20;0.80;;;;;20.70;97766.00;;;;2079521;28;20209;-48
2022/04/07 04:55:07;;;;;;;1.60;0.77;;;;;20.70;97773.00;;;;2077539;28;20217;-47
2022/04/07 04:56:07;;;;;;;1.63;0.67;;;;;20.70;97767.00;;;;2078706;28;20224;-47
2022/04/07 04:57:08;;;;;;;1.67;0.90;;;;;20.70;97779.00;;;;2078607;28;20213;-46
2022/04/07 04:58:08;;;;;;;1.53;0.83;;;;;20.70;97780.00;;;;2078378;28;20233;-46
2022/04/07 04:59:08;;;;;;;3.00;0.90;;;;;20.70;97784.00;;;;2078668;28;20217;-47
2022/04/07 05:00:09;;;;;;;1.50;0.60;;;;;20.70;97755.00;;;;2074068;28;20217;-48
2022/04/07 05:01:09;;;;;;;2.40;0.70;;;;;20.70;97755.00;;;;2071053;28;20218;-46
2022/04/07 05:02:10;;;;;;;1.57;1.03;;;;;20.70;97760.00;;;;2071480;28;20222;-47
2022/04/07 05:03:10;;;;;;;1.53;0.60;;;;;20.70;97760.00;;;;2071400;28;20238;-46
2022/04/07 05:04:10;;;;;;;1.30;0.77;;;;;20.70;97753.00;;;;2071258;28;20217;-47